createdAt,value
2022-09-12T00:01:25.808Z,15.02
2022-09-12T00:05:28.738Z,15.01
2022-09-12T00:09:31.387Z,15.00
2022-09-12T00:13:36.372Z,14.97
2022-09-12T00:17:42.239Z,14.97
2022-09-12T00:21:48.033Z,14.96
2022-09-12T00:25:50.208Z,14.96
2022-09-12T00:29:55.010Z,14.96
2022-09-12T00:34:01.124Z,14.95
2022-09-12T00:38:04.835Z,14.94
2022-09-12T00:42:07.641Z,14.88
2022-09-12T00:46:31.709Z,14.82
2022-09-12T00:50:41.892Z,14.74
2022-09-12T00:54:53.285Z,14.69
2022-09-12T00:59:05.479Z,14.61
2022-09-12T01:03:17.307Z,14.53
2022-09-12T01:07:20.489Z,14.48
2022-09-12T01:11:23.813Z,14.46
2022-09-12T01:15:31.027Z,14.40
2022-09-12T01:20:11.606Z,14.28
2022-09-12T01:24:44.742Z,14.23
2022-09-12T01:29:02.135Z,14.20
2022-09-12T01:33:39.506Z,14.14
2022-09-12T01:38:09.256Z,14.11
2022-09-12T01:42:18.179Z,14.07
2022-09-12T01:46:30.083Z,14.02
2022-09-12T01:50:44.326Z,14.01
2022-09-12T01:54:57.700Z,14.00
2022-09-12T01:59:17.364Z,13.95
2022-09-12T02:03:27.989Z,13.92
2022-09-12T02:07:53.527Z,13.91
2022-09-12T02:12:04.054Z,13.88
2022-09-12T02:16:14.814Z,13.88
2022-09-12T02:20:48.234Z,13.87
2022-09-12T02:24:55.995Z,13.85
2022-09-12T02:28:58.479Z,13.86
2022-09-12T02:33:15.572Z,13.89
2022-09-12T02:37:30.138Z,13.89
2022-09-12T02:41:32.545Z,13.89
2022-09-12T02:45:37.025Z,13.91
2022-09-12T02:49:40.972Z,13.93
2022-09-12T02:53:51.823Z,13.93
2022-09-12T02:57:54.105Z,13.90
2022-09-12T03:02:15.613Z,13.90
2022-09-12T03:06:55.146Z,13.91
2022-09-12T03:11:49.938Z,13.90
2022-09-12T03:15:54.992Z,13.92
2022-09-12T03:20:09.784Z,13.91
2022-09-12T03:24:47.234Z,13.94
2022-09-12T03:28:54.451Z,13.91
2022-09-12T03:32:56.796Z,13.90
2022-09-12T03:36:59.035Z,13.90
2022-09-12T03:41:01.587Z,13.88
2022-09-12T03:45:07.736Z,13.85
2022-09-12T03:49:15.055Z,13.85
2022-09-12T03:53:19.803Z,13.85
2022-09-12T03:57:22.995Z,13.85
2022-09-12T04:01:25.217Z,13.83
2022-09-12T04:05:27.568Z,13.81
2022-09-12T04:09:31.121Z,13.78
2022-09-12T04:13:38.654Z,13.76
2022-09-12T04:17:41.074Z,13.72
2022-09-12T04:21:45.689Z,13.70
2022-09-12T04:26:02.912Z,13.70
2022-09-12T04:30:05.909Z,13.67
2022-09-12T04:34:08.337Z,13.65
2022-09-12T04:38:12.826Z,13.64
2022-09-12T04:42:15.137Z,13.57
2022-09-12T04:46:20.700Z,13.53
2022-09-12T04:50:22.994Z,13.51
2022-09-12T04:54:28.959Z,13.50
2022-09-12T04:58:33.364Z,13.50
2022-09-12T05:02:38.604Z,13.50
2022-09-12T05:06:47.659Z,13.44
2022-09-12T05:11:00.621Z,13.38
2022-09-12T05:15:03.081Z,13.32
2022-09-12T05:19:08.042Z,13.33
2022-09-12T05:23:10.380Z,13.38
2022-09-12T05:27:15.794Z,13.42
2022-09-12T05:31:28.577Z,13.48
2022-09-12T05:35:31.048Z,13.52
2022-09-12T05:39:34.002Z,13.59
2022-09-12T05:43:40.084Z,13.64
2022-09-12T05:47:48.496Z,13.70
2022-09-12T05:51:52.064Z,13.74
2022-09-12T05:56:26.754Z,13.77
2022-09-12T06:00:33.522Z,13.81
2022-09-12T06:04:46.081Z,13.86
2022-09-12T06:09:01.719Z,13.90
2022-09-12T06:13:09.248Z,13.94
2022-09-12T06:17:23.278Z,13.98
2022-09-12T06:21:31.894Z,14.09
2022-09-12T06:25:46.785Z,14.18
2022-09-12T06:29:49.099Z,14.28
2022-09-12T06:33:57.237Z,14.39
2022-09-12T06:38:05.392Z,14.49
2022-09-12T06:42:10.299Z,14.62
2022-09-12T06:46:13.384Z,14.76
2022-09-12T06:50:27.284Z,14.91
2022-09-12T06:54:29.530Z,15.08
2022-09-12T06:58:43.031Z,15.26
2022-09-12T07:02:54.945Z,15.47
2022-09-12T07:07:09.891Z,15.74
2022-09-12T07:11:18.596Z,16.03
2022-09-12T07:15:21.286Z,16.32
2022-09-12T07:19:26.418Z,16.59
2022-09-12T07:23:31.977Z,16.93
2022-09-12T07:27:40.429Z,17.29
2022-09-12T07:31:43.625Z,17.67
2022-09-12T07:36:01.402Z,18.00
2022-09-12T07:40:04.079Z,18.34
2022-09-12T07:44:09.217Z,18.63
2022-09-12T07:48:11.813Z,19.06
2022-09-12T07:52:16.494Z,19.42
2022-09-12T07:56:29.371Z,19.79
2022-09-12T08:00:36.227Z,20.14
2022-09-12T08:04:38.613Z,20.17
2022-09-12T08:08:49.324Z,20.46
2022-09-12T08:12:51.872Z,20.72
2022-09-12T08:16:54.087Z,20.93
2022-09-12T08:21:03.173Z,21.07
2022-09-12T08:25:05.713Z,21.32
2022-09-12T08:29:22.468Z,21.43
2022-09-12T08:33:27.697Z,21.66
2022-09-12T08:37:33.053Z,21.92
2022-09-12T08:41:49.358Z,22.07
2022-09-12T08:46:06.436Z,22.23
2022-09-12T08:50:08.618Z,22.53
2022-09-12T08:54:22.103Z,22.76
2022-09-12T08:58:30.316Z,22.99
2022-09-12T09:02:52.757Z,23.14
2022-09-12T09:07:30.621Z,23.34
2022-09-12T09:11:53.007Z,23.50
2022-09-12T09:16:16.377Z,23.70
2022-09-12T09:21:00.826Z,23.88
2022-09-12T09:25:11.382Z,23.83
2022-09-12T09:29:23.057Z,23.93
2022-09-12T09:33:34.545Z,24.14
2022-09-12T09:37:43.476Z,24.40
2022-09-12T09:42:10.350Z,24.28
2022-09-12T09:46:14.485Z,23.99
2022-09-12T09:50:17.766Z,23.89
2022-09-12T09:54:36.353Z,24.15
2022-09-12T09:58:41.636Z,24.32
2022-09-12T10:02:44.315Z,24.63
2022-09-12T10:06:52.204Z,24.58
2022-09-12T10:11:04.755Z,24.55
2022-09-12T10:15:28.433Z,24.48
2022-09-12T10:19:52.681Z,24.21
2022-09-12T10:24:26.299Z,24.01
2022-09-12T10:28:45.662Z,24.17
2022-09-12T10:32:51.194Z,24.20
2022-09-12T10:37:13.351Z,24.31
2022-09-12T10:41:20.220Z,24.29
2022-09-12T10:45:39.046Z,24.39
2022-09-12T10:49:41.329Z,24.53
2022-09-12T10:53:46.965Z,24.34
2022-09-12T10:58:31.587Z,24.41
2022-09-12T11:02:37.098Z,25.18
2022-09-12T11:06:50.606Z,26.03
2022-09-12T11:11:00.660Z,26.53
2022-09-12T11:15:20.405Z,26.73
2022-09-12T11:19:56.347Z,27.00
2022-09-12T11:24:06.773Z,27.45
2022-09-12T11:28:20.764Z,27.63
2022-09-12T11:32:38.110Z,27.56
2022-09-12T11:37:07.426Z,27.90
2022-09-12T11:41:27.695Z,28.07
2022-09-12T11:45:39.438Z,28.35
2022-09-12T11:49:52.677Z,28.99
2022-09-12T11:54:05.469Z,29.47
2022-09-12T11:58:11.611Z,29.29
2022-09-12T12:02:35.607Z,29.55
2022-09-12T12:06:52.920Z,30.03
2022-09-12T12:11:03.977Z,30.15
2022-09-12T12:15:16.556Z,30.64
2022-09-12T12:19:19.116Z,31.10
2022-09-12T12:23:26.198Z,31.53
2022-09-12T12:28:09.349Z,31.83
2022-09-12T12:32:28.893Z,32.48
2022-09-12T12:36:44.985Z,33.15
2022-09-12T12:40:50.837Z,33.02
2022-09-12T12:44:56.804Z,33.19
2022-09-12T12:49:18.027Z,33.34
2022-09-12T12:53:38.602Z,33.67
2022-09-12T12:57:59.592Z,33.68
2022-09-12T13:02:02.218Z,33.79
2022-09-12T13:06:10.659Z,34.03
2022-09-12T13:10:29.108Z,34.22
2022-09-12T13:14:48.918Z,34.17
2022-09-12T13:18:54.747Z,32.92
2022-09-12T13:22:58.770Z,31.76
2022-09-12T13:27:04.382Z,30.75
2022-09-12T13:31:35.464Z,30.27
2022-09-12T13:36:12.956Z,30.29
2022-09-12T13:40:33.612Z,30.74
2022-09-12T13:45:05.202Z,31.53
2022-09-12T13:49:18.856Z,32.65
2022-09-12T13:53:36.913Z,32.57
2022-09-12T13:57:42.917Z,32.71
2022-09-12T14:01:51.652Z,33.11
2022-09-12T14:05:57.762Z,32.23
2022-09-12T14:10:06.426Z,30.95
2022-09-12T14:14:25.058Z,29.85
2022-09-12T14:18:39.119Z,28.80
2022-09-12T14:22:46.379Z,28.16
2022-09-12T14:26:59.454Z,27.91
2022-09-12T14:31:27.041Z,28.11
2022-09-12T14:35:33.653Z,28.80
2022-09-12T14:39:45.989Z,29.04
2022-09-12T14:43:54.382Z,29.29
2022-09-12T14:47:59.697Z,29.24
2022-09-12T14:52:16.849Z,29.45
2022-09-12T14:56:22.781Z,29.33
2022-09-12T15:00:25.212Z,29.11
2022-09-12T15:04:48.413Z,30.02
2022-09-12T15:09:01.719Z,30.00
2022-09-12T15:13:28.486Z,29.29
2022-09-12T15:17:35.888Z,28.72
2022-09-12T15:21:38.633Z,28.24
2022-09-12T15:25:45.544Z,28.05
2022-09-12T15:29:52.842Z,27.90
2022-09-12T15:34:03.207Z,27.53
2022-09-12T15:38:13.565Z,27.34
2022-09-12T15:42:24.669Z,27.09
2022-09-12T15:46:28.822Z,27.05
2022-09-12T15:50:31.541Z,26.67
2022-09-12T15:54:36.955Z,26.46
2022-09-12T15:58:57.159Z,26.27
2022-09-12T16:03:02.776Z,26.18
2022-09-12T16:07:14.780Z,26.43
2022-09-12T16:11:23.170Z,26.27
2022-09-12T16:15:28.508Z,25.98
2022-09-12T16:19:33.191Z,25.71
2022-09-12T16:23:36.712Z,25.55
2022-09-12T16:27:45.143Z,25.39
2022-09-12T16:31:50.243Z,25.14
2022-09-12T16:36:04.187Z,25.01
2022-09-12T16:40:23.789Z,24.85
2022-09-12T16:44:28.855Z,24.67
2022-09-12T16:48:34.569Z,24.50
2022-09-12T16:52:36.732Z,24.34
2022-09-12T16:56:42.625Z,24.24
2022-09-12T17:00:44.931Z,24.06
2022-09-12T17:04:49.767Z,23.93
2022-09-12T17:09:04.605Z,23.74
2022-09-12T17:13:06.817Z,23.49
2022-09-12T17:17:14.712Z,23.21
2022-09-12T17:21:19.786Z,22.95
2022-09-12T17:25:28.092Z,22.71
2022-09-12T17:29:34.719Z,22.56
2022-09-12T17:33:39.860Z,22.48
2022-09-12T17:42:04.876Z,21.93
2022-09-12T17:46:20.627Z,21.67
2022-09-12T17:50:31.733Z,21.40
2022-09-12T17:54:47.305Z,21.18
2022-09-12T17:58:57.319Z,20.93
2022-09-12T18:02:59.720Z,20.77
2022-09-12T18:07:11.011Z,20.58
2022-09-12T18:11:13.428Z,20.40
2022-09-12T18:15:17.951Z,20.24
2022-09-12T18:19:24.827Z,20.09
2022-09-12T18:23:31.009Z,19.95
2022-09-12T18:27:37.004Z,19.84
2022-09-12T18:31:44.426Z,19.72
2022-09-12T18:35:47.065Z,19.62
2022-09-12T18:39:51.673Z,19.49
2022-09-12T18:44:03.880Z,19.39
2022-09-12T18:48:08.689Z,19.27
2022-09-12T18:52:10.959Z,19.16
2022-09-12T18:56:29.016Z,19.09
2022-09-12T19:00:31.417Z,19.01
2022-09-12T19:04:59.365Z,18.96
2022-09-12T19:09:06.705Z,18.86
2022-09-12T19:13:12.527Z,18.78
2022-09-12T19:17:15.448Z,18.70
2022-09-12T19:21:20.378Z,18.63
2022-09-12T19:25:25.056Z,18.57
2022-09-12T19:29:27.590Z,18.53
2022-09-12T19:33:31.870Z,18.45
2022-09-12T19:37:34.296Z,18.41
2022-09-12T19:41:38.892Z,18.36
2022-09-12T19:45:48.652Z,18.31
2022-09-12T19:49:52.609Z,18.27
2022-09-12T19:53:57.752Z,18.25
2022-09-12T19:58:04.012Z,18.21
2022-09-12T20:02:06.544Z,18.17
2022-09-12T20:06:11.773Z,18.16
2022-09-12T20:10:15.201Z,18.15
2022-09-12T20:14:18.635Z,18.13
2022-09-12T20:18:21.191Z,18.10
2022-09-12T20:22:26.008Z,18.08
2022-09-12T20:26:31.197Z,18.09
2022-09-12T20:30:33.403Z,18.07
2022-09-12T20:34:35.471Z,18.05
2022-09-12T20:39:01.561Z,18.00
2022-09-12T20:43:03.905Z,17.98
2022-09-12T20:47:08.820Z,17.94
2022-09-12T20:51:11.019Z,17.90
2022-09-12T20:55:13.098Z,17.86
2022-09-12T20:59:18.714Z,17.85
2022-09-12T21:03:25.856Z,17.82
2022-09-12T21:07:28.274Z,17.77
2022-09-12T21:11:30.613Z,17.76
2022-09-12T21:15:32.950Z,17.73
2022-09-12T21:19:35.279Z,17.73
2022-09-12T21:23:40.833Z,17.71
2022-09-12T21:27:43.040Z,17.68
2022-09-12T21:31:45.412Z,17.68
2022-09-12T21:35:50.471Z,17.69
2022-09-12T21:39:53.197Z,17.70
2022-09-12T21:43:55.618Z,17.71
2022-09-12T21:47:57.975Z,17.70
2022-09-12T21:52:00.414Z,17.71
2022-09-12T21:56:05.100Z,17.69
2022-09-12T22:00:12.344Z,17.72
2022-09-12T22:04:22.413Z,17.76
2022-09-12T22:08:24.880Z,17.80
2022-09-12T22:12:30.072Z,17.85
2022-09-12T22:16:34.255Z,17.88
2022-09-12T22:20:39.089Z,17.93
2022-09-12T22:24:46.368Z,17.91
2022-09-12T22:28:50.676Z,17.92
2022-09-12T22:32:53.134Z,17.90
2022-09-12T22:36:55.914Z,17.88
2022-09-12T22:41:06.465Z,17.87
2022-09-12T22:45:09.207Z,17.88
2022-09-12T22:49:14.264Z,17.87
2022-09-12T22:53:28.225Z,17.89
2022-09-12T22:57:30.683Z,17.84
2022-09-12T23:01:35.719Z,17.79
2022-09-12T23:05:40.673Z,17.70
2022-09-12T23:09:42.795Z,17.58
2022-09-12T23:13:46.886Z,17.42
2022-09-12T23:17:49.197Z,17.30
2022-09-12T23:21:51.610Z,17.18
2022-09-12T23:26:13.238Z,17.09
2022-09-12T23:30:18.028Z,17.02
2022-09-12T23:34:20.158Z,16.95
2022-09-12T23:38:24.844Z,16.90
2022-09-12T23:42:27.273Z,16.80
2022-09-12T23:46:32.065Z,16.74
2022-09-12T23:50:34.288Z,16.71
2022-09-12T23:54:37.400Z,16.66
2022-09-12T23:58:39.523Z,16.62
